createdAt,value
2019-05-28T00:00:04.100Z,4.00
2019-05-28T00:01:04.087Z,4.00
2019-05-28T00:02:04.100Z,8.00
2019-05-28T00:03:04.069Z,4.00
2019-05-28T00:04:04.083Z,4.00
2019-05-28T00:05:04.053Z,4.00
2019-05-28T00:06:04.038Z,4.00
2019-05-28T00:07:04.060Z,4.00
2019-05-28T00:08:04.036Z,4.00
2019-05-28T00:09:04.025Z,4.00
2019-05-28T00:10:04.134Z,4.00
2019-05-28T00:11:03.982Z,4.00
2019-05-28T00:12:03.971Z,8.00
2019-05-28T00:13:03.961Z,8.00
2019-05-28T00:14:03.957Z,4.00
2019-05-28T00:15:04.022Z,4.00
2019-05-28T00:16:03.930Z,8.00
2019-05-28T00:17:03.914Z,8.00
2019-05-28T00:18:03.906Z,8.00
2019-05-28T00:19:04.341Z,8.00
2019-05-28T00:20:03.891Z,8.00
2019-05-28T00:21:03.883Z,8.00
2019-05-28T00:22:03.933Z,8.00
2019-05-28T00:23:03.861Z,12.00
2019-05-28T00:24:03.883Z,12.00
2019-05-28T00:25:03.833Z,12.00
2019-05-28T00:26:03.830Z,12.00
2019-05-28T00:27:03.823Z,12.00
2019-05-28T00:28:03.803Z,16.00
2019-05-28T00:29:12.354Z,12.00
2019-05-28T00:30:18.463Z,16.00
2019-05-28T00:31:04.768Z,16.00
2019-05-28T00:32:03.759Z,16.00
2019-05-28T00:33:03.738Z,20.00
2019-05-28T00:34:03.742Z,24.00
2019-05-28T00:35:03.741Z,24.00
2019-05-28T00:36:03.784Z,24.00
2019-05-28T00:37:03.701Z,20.00
2019-05-28T00:38:03.694Z,24.00
2019-05-28T00:39:03.728Z,24.00
2019-05-28T00:40:03.670Z,24.00
2019-05-28T00:41:03.665Z,24.00
2019-05-28T00:42:03.663Z,24.00
2019-05-28T00:43:03.634Z,28.00
2019-05-28T00:44:03.632Z,28.00
2019-05-28T00:45:03.676Z,32.00
2019-05-28T00:46:03.672Z,36.00
2019-05-28T00:47:03.639Z,36.00
2019-05-28T00:48:03.590Z,36.00
2019-05-28T00:49:03.571Z,40.00
2019-05-28T00:50:03.567Z,44.00
2019-05-28T00:51:03.627Z,44.00
2019-05-28T00:52:03.545Z,48.00
2019-05-28T00:53:03.544Z,48.00
2019-05-28T00:54:03.513Z,52.00
2019-05-28T00:55:03.502Z,52.00
2019-05-28T00:56:03.497Z,60.00
2019-05-28T00:57:03.559Z,60.00
2019-05-28T00:58:03.478Z,64.00
2019-05-28T00:59:03.475Z,68.00
2019-05-28T01:00:03.455Z,72.00
2019-05-28T01:01:10.946Z,68.00
2019-05-28T01:02:03.433Z,72.00
2019-05-28T01:03:03.423Z,72.00
2019-05-28T01:04:03.410Z,68.00
2019-05-28T01:05:03.405Z,68.00
2019-05-28T01:06:03.388Z,64.00
2019-05-28T01:07:03.459Z,64.00
2019-05-28T01:08:03.417Z,64.00
2019-05-28T01:09:03.362Z,64.00
2019-05-28T01:10:03.348Z,68.00
2019-05-28T01:11:03.403Z,68.00
2019-05-28T01:12:03.328Z,72.00
2019-05-28T01:13:03.315Z,76.00
2019-05-28T01:14:03.309Z,76.00
2019-05-28T01:15:03.410Z,80.00
2019-05-28T01:16:03.283Z,84.00
2019-05-28T01:17:03.269Z,84.00
2019-05-28T01:18:03.281Z,88.00
2019-05-28T01:19:03.293Z,92.00
2019-05-28T01:20:03.234Z,92.00
2019-05-28T01:21:03.241Z,96.00
2019-05-28T01:22:03.259Z,100.00
2019-05-28T01:23:03.208Z,100.00
2019-05-28T01:24:03.223Z,104.00
2019-05-28T01:25:03.188Z,112.00
2019-05-28T01:26:03.169Z,116.00
2019-05-28T01:27:03.161Z,124.00
2019-05-28T01:28:03.154Z,124.00
2019-05-28T01:29:03.187Z,132.00
2019-05-28T01:30:03.173Z,132.00
2019-05-28T01:31:03.117Z,136.00
2019-05-28T01:32:03.120Z,136.00
2019-05-28T01:33:10.894Z,140.00
2019-05-28T01:34:03.089Z,144.00
2019-05-28T01:35:03.081Z,148.00
2019-05-28T01:36:03.075Z,152.00
2019-05-28T01:37:03.069Z,160.00
2019-05-28T01:38:03.051Z,168.00
2019-05-28T01:39:03.030Z,172.00
2019-05-28T01:40:03.026Z,176.00
2019-05-28T01:41:03.048Z,184.00
2019-05-28T01:42:03.026Z,184.00
2019-05-28T01:43:02.990Z,184.00
2019-05-28T01:44:03.036Z,176.00
2019-05-28T01:45:02.977Z,176.00
2019-05-28T01:46:02.959Z,180.00
2019-05-28T01:47:02.949Z,184.00
2019-05-28T01:48:02.960Z,188.00
2019-05-28T01:49:02.942Z,192.00
2019-05-28T01:50:02.913Z,196.00
2019-05-28T01:51:02.901Z,200.00
2019-05-28T01:52:02.900Z,200.00
2019-05-28T01:53:02.886Z,208.00
2019-05-28T01:54:02.876Z,212.00
2019-05-28T01:55:02.914Z,216.00
2019-05-28T01:56:02.846Z,208.00
2019-05-28T01:57:02.843Z,212.00
2019-05-28T01:58:02.842Z,212.00
2019-05-28T01:59:02.828Z,212.00
2019-05-28T02:00:02.803Z,208.00
2019-05-28T02:01:12.146Z,212.00
2019-05-28T02:02:03.805Z,216.00
2019-05-28T02:03:02.798Z,224.00
2019-05-28T02:04:02.788Z,228.00
2019-05-28T02:05:09.737Z,240.00
2019-05-28T02:06:02.733Z,244.00
2019-05-28T02:07:02.726Z,256.00
2019-05-28T02:08:02.725Z,268.00
2019-05-28T02:09:02.728Z,272.00
2019-05-28T02:10:02.703Z,280.00
2019-05-28T02:11:02.688Z,288.00
2019-05-28T02:12:02.737Z,300.00
2019-05-28T02:13:02.671Z,308.00
2019-05-28T02:14:02.701Z,320.00
2019-05-28T02:15:02.643Z,324.00
2019-05-28T02:16:02.716Z,324.00
2019-05-28T02:17:02.629Z,328.00
2019-05-28T02:18:02.606Z,340.00
2019-05-28T02:19:02.692Z,360.00
2019-05-28T02:20:02.600Z,384.00
2019-05-28T02:21:02.578Z,408.00
2019-05-28T02:22:02.577Z,424.00
2019-05-28T02:23:02.555Z,440.00
2019-05-28T02:24:02.623Z,444.00
2019-05-28T02:25:02.579Z,448.00
2019-05-28T02:26:02.530Z,440.00
2019-05-28T02:27:02.518Z,428.00
2019-05-28T02:28:02.506Z,420.00
2019-05-28T02:29:02.501Z,420.00
2019-05-28T02:30:02.853Z,424.00
2019-05-28T02:31:02.485Z,424.00
2019-05-28T02:32:02.467Z,420.00
2019-05-28T02:33:02.466Z,404.00
2019-05-28T02:34:02.452Z,408.00
2019-05-28T02:35:02.425Z,420.00
2019-05-28T02:36:02.432Z,432.00
2019-05-28T02:37:11.443Z,484.00
2019-05-28T02:38:02.391Z,496.00
2019-05-28T02:39:02.384Z,544.00
2019-05-28T02:40:02.370Z,584.00
2019-05-28T02:41:02.389Z,608.00
2019-05-28T02:42:02.394Z,636.00
2019-05-28T02:43:02.335Z,660.00
2019-05-28T02:44:02.336Z,672.00
2019-05-28T02:45:02.353Z,672.00
2019-05-28T02:46:02.362Z,664.00
2019-05-28T02:47:02.358Z,644.00
2019-05-28T02:48:02.288Z,600.00
2019-05-28T02:49:02.281Z,556.00
2019-05-28T02:50:02.282Z,588.00
2019-05-28T02:51:02.253Z,652.00
2019-05-28T02:52:02.260Z,668.00
2019-05-28T02:53:02.230Z,652.00
2019-05-28T02:54:02.219Z,636.00
2019-05-28T02:55:02.252Z,632.00
2019-05-28T02:56:02.204Z,636.00
2019-05-28T02:57:02.298Z,648.00
2019-05-28T02:58:02.184Z,664.00
2019-05-28T02:59:02.184Z,708.00
2019-05-28T03:00:02.157Z,740.00
2019-05-28T03:01:02.150Z,772.00
2019-05-28T03:02:02.195Z,764.00
2019-05-28T03:03:02.157Z,716.00
2019-05-28T03:04:02.120Z,680.00
2019-05-28T03:05:02.106Z,628.00
2019-05-28T03:06:02.090Z,596.00
2019-05-28T03:07:02.087Z,572.00
2019-05-28T03:08:02.068Z,584.00
2019-05-28T03:09:09.495Z,592.00
2019-05-28T03:10:02.051Z,628.00
2019-05-28T03:11:03.802Z,648.00
2019-05-28T03:12:02.025Z,712.00
2019-05-28T03:13:02.026Z,736.00
2019-05-28T03:14:02.046Z,724.00
2019-05-28T03:15:02.058Z,708.00
2019-05-28T03:16:01.982Z,700.00
2019-05-28T03:17:01.966Z,640.00
2019-05-28T03:18:01.986Z,600.00
2019-05-28T03:19:01.959Z,600.00
2019-05-28T03:20:01.950Z,588.00
2019-05-28T03:21:01.928Z,620.00
2019-05-28T03:22:01.924Z,648.00
2019-05-28T03:23:01.910Z,680.00
2019-05-28T03:24:02.051Z,708.00
2019-05-28T03:25:01.878Z,748.00
2019-05-28T03:26:01.885Z,808.00
2019-05-28T03:27:01.863Z,868.00
2019-05-28T03:28:01.849Z,932.00
2019-05-28T03:29:01.842Z,1076.00
2019-05-28T03:30:01.972Z,1160.00
2019-05-28T03:31:01.907Z,1272.00
2019-05-28T03:32:07.711Z,1288.00
2019-05-28T03:33:02.803Z,1232.00
2019-05-28T03:34:01.787Z,1144.00
2019-05-28T03:35:01.783Z,1092.00
2019-05-28T03:36:01.811Z,1012.00
2019-05-28T03:37:01.819Z,964.00
2019-05-28T03:38:01.759Z,964.00
2019-05-28T03:39:01.739Z,1020.00
2019-05-28T03:40:01.724Z,988.00
2019-05-28T03:41:10.504Z,1032.00
2019-05-28T03:42:01.696Z,1016.00
2019-05-28T03:43:01.694Z,1016.00
2019-05-28T03:44:01.680Z,984.00
2019-05-28T03:45:01.671Z,1016.00
2019-05-28T03:46:01.719Z,1032.00
2019-05-28T03:47:01.639Z,1056.00
2019-05-28T03:48:01.632Z,1092.00
2019-05-28T03:49:01.624Z,1172.00
2019-05-28T03:50:01.614Z,1304.00
2019-05-28T03:51:01.656Z,1296.00
2019-05-28T03:52:01.628Z,1256.00
2019-05-28T03:53:01.584Z,1324.00
2019-05-28T03:54:01.579Z,1348.00
2019-05-28T03:55:01.615Z,1392.00
2019-05-28T03:56:01.594Z,1364.00
2019-05-28T03:57:01.577Z,1420.00
2019-05-28T03:58:01.523Z,1644.00
2019-05-28T03:59:01.512Z,1796.00
2019-05-28T04:00:01.523Z,1940.00
2019-05-28T04:01:01.489Z,2128.00
2019-05-28T04:02:01.577Z,2180.00
2019-05-28T04:03:01.483Z,2412.00
2019-05-28T04:04:01.471Z,2668.00
2019-05-28T04:05:01.479Z,2564.00
2019-05-28T04:06:01.479Z,2388.00
2019-05-28T04:07:01.427Z,2488.00
2019-05-28T04:08:01.465Z,2276.00
2019-05-28T04:09:01.411Z,1900.00
2019-05-28T04:10:01.407Z,1736.00
2019-05-28T04:11:01.387Z,1592.00
2019-05-28T04:12:01.451Z,1720.00
2019-05-28T04:13:10.025Z,1904.00
2019-05-28T04:14:01.362Z,1904.00
2019-05-28T04:15:01.341Z,1888.00
2019-05-28T04:16:01.333Z,1968.00
2019-05-28T04:17:01.315Z,2120.00
2019-05-28T04:18:01.310Z,2188.00
2019-05-28T04:19:01.320Z,2160.00
2019-05-28T04:20:01.344Z,2224.00
2019-05-28T04:21:01.287Z,2400.00
2019-05-28T04:22:01.280Z,2680.00
2019-05-28T04:23:01.254Z,2696.00
2019-05-28T04:24:01.255Z,2700.00
2019-05-28T04:25:01.249Z,2780.00
2019-05-28T04:26:01.225Z,2884.00
2019-05-28T04:27:01.422Z,2856.00
2019-05-28T04:28:01.203Z,2648.00
2019-05-28T04:29:01.201Z,2524.00
2019-05-28T04:30:01.234Z,2652.00
2019-05-28T04:31:01.233Z,2476.00
2019-05-28T04:32:01.161Z,2624.00
2019-05-28T04:33:01.149Z,2764.00
2019-05-28T04:34:01.140Z,2740.00
2019-05-28T04:35:01.169Z,2996.00
2019-05-28T04:36:01.156Z,2808.00
2019-05-28T04:37:01.158Z,2692.00
2019-05-28T04:38:01.103Z,2576.00
2019-05-28T04:39:01.084Z,2284.00
2019-05-28T04:40:01.075Z,2112.00
2019-05-28T04:41:01.065Z,2000.00
2019-05-28T04:42:01.100Z,1776.00
2019-05-28T04:43:01.030Z,1748.00
2019-05-28T04:44:01.022Z,2012.00
2019-05-28T04:45:08.568Z,2588.00
2019-05-28T04:46:01.007Z,2944.00
2019-05-28T04:47:00.994Z,3420.00
2019-05-28T04:48:00.985Z,3696.00
2019-05-28T04:49:00.976Z,3896.00
2019-05-28T04:50:00.963Z,4612.00
2019-05-28T04:51:01.060Z,4792.00
2019-05-28T04:52:00.971Z,4924.00
2019-05-28T04:53:00.931Z,5420.00
2019-05-28T04:54:00.926Z,4740.00
2019-05-28T04:55:00.946Z,4812.00
2019-05-28T04:56:00.899Z,5548.00
2019-05-28T04:57:00.899Z,5220.00
2019-05-28T04:58:00.874Z,4876.00
2019-05-28T04:59:03.857Z,4984.00
2019-05-28T05:00:00.905Z,5140.00
2019-05-28T05:01:00.837Z,4428.00
2019-05-28T05:02:00.828Z,5100.00
2019-05-28T05:03:01.118Z,4952.00
2019-05-28T05:04:00.807Z,4020.00
2019-05-28T05:05:00.811Z,3964.00
2019-05-28T05:06:00.943Z,3624.00
2019-05-28T05:07:00.849Z,3848.00
2019-05-28T05:08:00.760Z,3736.00
2019-05-28T05:09:00.760Z,3656.00
2019-05-28T05:10:00.747Z,3356.00
2019-05-28T05:11:00.737Z,3180.00
2019-05-28T05:12:00.770Z,3092.00
2019-05-28T05:13:00.713Z,3284.00
2019-05-28T05:14:00.711Z,3736.00
2019-05-28T05:15:00.692Z,4084.00
2019-05-28T05:16:00.677Z,3912.00
2019-05-28T05:17:07.650Z,3808.00
2019-05-28T05:18:00.654Z,3780.00
2019-05-28T05:19:00.664Z,4076.00
2019-05-28T05:20:00.698Z,4544.00
2019-05-28T05:21:00.623Z,4060.00
2019-05-28T05:22:00.622Z,4120.00
2019-05-28T05:23:00.603Z,3508.00
2019-05-28T05:24:00.604Z,3576.00
2019-05-28T05:25:00.588Z,3240.00
2019-05-28T05:26:00.574Z,3224.00
2019-05-28T05:27:00.565Z,3576.00
2019-05-28T05:28:00.562Z,3368.00
2019-05-28T05:29:00.532Z,3492.00
2019-05-28T05:30:00.630Z,3632.00
2019-05-28T05:31:00.523Z,3588.00
2019-05-28T05:32:00.499Z,3412.00
2019-05-28T05:33:18.525Z,3072.00
2019-05-28T05:34:01.482Z,2852.00
2019-05-28T05:35:00.474Z,2684.00
2019-05-28T05:36:00.473Z,2392.00
2019-05-28T05:37:00.448Z,2812.00
2019-05-28T05:38:00.492Z,3088.00
2019-05-28T05:39:00.429Z,3304.00
2019-05-28T05:40:00.422Z,3396.00
2019-05-28T05:41:00.414Z,3412.00
2019-05-28T05:42:00.421Z,3400.00
2019-05-28T05:43:00.390Z,3736.00
2019-05-28T05:44:00.380Z,3532.00
2019-05-28T05:45:00.385Z,3768.00
2019-05-28T05:46:00.357Z,3808.00
2019-05-28T05:47:00.341Z,4544.00
2019-05-28T05:48:00.347Z,4628.00
2019-05-28T05:49:08.114Z,4704.00
2019-05-28T05:50:00.307Z,4216.00
2019-05-28T05:51:00.295Z,4376.00
2019-05-28T05:52:00.302Z,4688.00
2019-05-28T05:53:00.275Z,5076.00
2019-05-28T05:54:00.269Z,5004.00
2019-05-28T05:55:00.254Z,5076.00
2019-05-28T05:56:00.245Z,5596.00
2019-05-28T05:57:00.346Z,5656.00
2019-05-28T05:58:00.222Z,5656.00
2019-05-28T05:59:00.213Z,5884.00
2019-05-28T06:00:00.260Z,5568.00
2019-05-28T06:01:00.240Z,5728.00
2019-05-28T06:02:00.185Z,5052.00
2019-05-28T06:03:00.170Z,4880.00
2019-05-28T06:04:00.154Z,5284.00
2019-05-28T06:05:00.146Z,6536.00
2019-05-28T06:06:00.160Z,6468.00
2019-05-28T06:07:00.129Z,5896.00
2019-05-28T06:08:00.139Z,6092.00
2019-05-28T06:09:00.158Z,5628.00
2019-05-28T06:10:00.179Z,5600.00
2019-05-28T06:11:00.087Z,5052.00
2019-05-28T06:12:00.099Z,5612.00
2019-05-28T06:13:00.097Z,6080.00
2019-05-28T06:14:00.047Z,6032.00
2019-05-28T06:15:00.049Z,5952.00
2019-05-28T06:16:00.033Z,6144.00
2019-05-28T06:17:00.030Z,5844.00
2019-05-28T06:18:00.054Z,5780.00
2019-05-28T06:19:00.077Z,5372.00
2019-05-28T06:19:59.977Z,5360.00
2019-05-28T06:21:14.860Z,4772.00
2019-05-28T06:22:00.959Z,4000.00
2019-05-28T06:22:59.952Z,4032.00
2019-05-28T06:23:59.936Z,4004.00
2019-05-28T06:24:59.960Z,3844.00
2019-05-28T06:25:59.917Z,4192.00
2019-05-28T06:26:59.991Z,4916.00
2019-05-28T06:27:59.936Z,5764.00
2019-05-28T06:28:59.916Z,5308.00
2019-05-28T06:29:59.899Z,4252.00
2019-05-28T06:30:59.860Z,4020.00
2019-05-28T06:31:59.881Z,4364.00
2019-05-28T06:32:59.842Z,4984.00
2019-05-28T06:33:59.904Z,5716.00
2019-05-28T06:34:59.814Z,5392.00
2019-05-28T06:35:59.815Z,5896.00
2019-05-28T06:36:59.798Z,5900.00
2019-05-28T06:37:59.788Z,5452.00
2019-05-28T06:38:59.775Z,3932.00
2019-05-28T06:39:59.843Z,3300.00
2019-05-28T06:40:59.765Z,3884.00
2019-05-28T06:41:59.750Z,3964.00
2019-05-28T06:42:59.731Z,4384.00
2019-05-28T06:43:59.756Z,3828.00
2019-05-28T06:44:59.756Z,3600.00
2019-05-28T06:45:59.700Z,4348.00
2019-05-28T06:46:59.714Z,5472.00
2019-05-28T06:47:59.679Z,5140.00
2019-05-28T06:48:59.667Z,4860.00
2019-05-28T06:49:59.662Z,5620.00
2019-05-28T06:50:59.673Z,5660.00
2019-05-28T06:51:59.638Z,5704.00
2019-05-28T06:53:07.115Z,5156.00
2019-05-28T06:53:59.611Z,4316.00
2019-05-28T06:54:59.598Z,3260.00
2019-05-28T06:55:59.605Z,3012.00
2019-05-28T06:56:59.598Z,2740.00
2019-05-28T06:57:59.584Z,2544.00
2019-05-28T06:58:59.562Z,2420.00
2019-05-28T06:59:59.544Z,2488.00
2019-05-28T07:00:59.567Z,2404.00
2019-05-28T07:01:59.545Z,2760.00
2019-05-28T07:02:59.562Z,3316.00
2019-05-28T07:04:13.182Z,4460.00
2019-05-28T07:05:00.494Z,4940.00
2019-05-28T07:06:07.068Z,6728.00
2019-05-28T07:07:00.517Z,7864.00
2019-05-28T07:07:59.469Z,7976.00
2019-05-28T07:08:59.447Z,9540.00
2019-05-28T07:09:59.438Z,10292.00
2019-05-28T07:10:59.520Z,9832.00
2019-05-28T07:11:59.428Z,8768.00
2019-05-28T07:12:59.428Z,7824.00
2019-05-28T07:13:59.396Z,6868.00
2019-05-28T07:14:59.434Z,6484.00
2019-05-28T07:15:59.380Z,6780.00
2019-05-28T07:16:59.395Z,7244.00
2019-05-28T07:17:59.791Z,7456.00
2019-05-28T07:18:59.351Z,7724.00
2019-05-28T07:19:59.347Z,7160.00
2019-05-28T07:20:59.325Z,6600.00
2019-05-28T07:21:59.306Z,6336.00
2019-05-28T07:22:59.296Z,6324.00
2019-05-28T07:23:59.374Z,6596.00
2019-05-28T07:25:06.769Z,7256.00
2019-05-28T07:25:59.267Z,7916.00
2019-05-28T07:26:59.259Z,8104.00
2019-05-28T07:28:10.252Z,7876.00
2019-05-28T07:29:00.273Z,7788.00
2019-05-28T07:29:59.217Z,7692.00
2019-05-28T07:30:59.208Z,7660.00
2019-05-28T07:31:59.215Z,7584.00
2019-05-28T07:32:59.199Z,7472.00
2019-05-28T07:33:59.213Z,7636.00
2019-05-28T07:34:59.175Z,8332.00
2019-05-28T07:35:59.160Z,8928.00
2019-05-28T07:36:59.164Z,9660.00
2019-05-28T07:37:59.174Z,10348.00
2019-05-28T07:50:59.028Z,5356.00
2019-05-28T07:57:06.424Z,8692.00
2019-05-28T08:08:58.810Z,8220.00
2019-05-28T08:21:58.673Z,8656.00
2019-05-28T08:29:06.235Z,4140.00
2019-05-28T08:39:58.467Z,3536.00
2019-05-28T08:52:58.322Z,4904.00
2019-05-28T09:01:05.752Z,4888.00
2019-05-28T09:10:58.189Z,3136.00
2019-05-28T09:14:58.132Z,2932.00
2019-05-28T09:15:58.147Z,2920.00
2019-05-28T09:16:58.090Z,2764.00
2019-05-28T09:17:58.105Z,2672.00
2019-05-28T09:18:58.038Z,2580.00
2019-05-28T09:19:58.026Z,2616.00
2019-05-28T09:20:58.047Z,2784.00
2019-05-28T09:21:58.041Z,3020.00
2019-05-28T09:22:57.997Z,3456.00
2019-05-28T09:23:58.034Z,3796.00
2019-05-28T09:24:57.979Z,4148.00
2019-05-28T09:25:57.964Z,4904.00
2019-05-28T09:26:57.956Z,5092.00
2019-05-28T09:27:57.953Z,4908.00
2019-05-28T09:28:57.956Z,5264.00
2019-05-28T09:29:57.947Z,5120.00
2019-05-28T09:30:57.925Z,5900.00
2019-05-28T09:31:57.922Z,7280.00
2019-05-28T09:34:32.954Z,9984.00
2019-05-28T09:35:43.962Z,10608.00
2019-05-28T09:36:33.923Z,9468.00
2019-05-28T09:37:32.914Z,9724.00
2019-05-28T09:38:32.913Z,9080.00
2019-05-28T09:39:32.896Z,8040.00
2019-05-28T09:40:49.418Z,8176.00
2019-05-28T09:41:33.883Z,8524.00
2019-05-28T09:42:32.880Z,7508.00
2019-05-28T09:43:32.890Z,6484.00
2019-05-28T09:44:32.844Z,6180.00
2019-05-28T09:45:32.879Z,6852.00
2019-05-28T09:46:32.811Z,6956.00
2019-05-28T09:47:32.809Z,7956.00
2019-05-28T09:48:32.792Z,8552.00
2019-05-28T09:49:32.803Z,7788.00
2019-05-28T09:50:32.886Z,6340.00
2019-05-28T09:51:32.760Z,4772.00
2019-05-28T09:52:32.747Z,4420.00
2019-05-28T09:53:34.861Z,3812.00
2019-05-28T09:54:32.732Z,3800.00
2019-05-28T09:55:32.722Z,3676.00
2019-05-28T09:56:32.943Z,3504.00
2019-05-28T09:57:46.317Z,3704.00
2019-05-28T09:58:33.680Z,3460.00
2019-05-28T09:59:41.108Z,3744.00
2019-05-28T10:00:33.672Z,4352.00
2019-05-28T10:01:32.662Z,4628.00
2019-05-28T10:02:32.644Z,4480.00
2019-05-28T10:03:32.661Z,4116.00
2019-05-28T10:04:48.643Z,4268.00
2019-05-28T10:06:42.377Z,5228.00
2019-05-28T10:07:42.361Z,5448.00
2019-05-28T10:08:42.377Z,5404.00
2019-05-28T10:09:42.366Z,5424.00
2019-05-28T10:10:42.329Z,4944.00
2019-05-28T10:11:42.340Z,4828.00
2019-05-28T10:12:42.311Z,4580.00
2019-05-28T10:13:42.299Z,4316.00
2019-05-28T10:14:44.309Z,4228.00
2019-05-28T10:15:42.301Z,4640.00
2019-05-28T10:16:42.312Z,5048.00
2019-05-28T10:17:42.301Z,5204.00
2019-05-28T10:18:42.253Z,5524.00
2019-05-28T10:19:42.279Z,6256.00
2019-05-28T10:20:42.231Z,6612.00
2019-05-28T10:21:42.210Z,5884.00
2019-05-28T10:22:42.238Z,5576.00
2019-05-28T10:23:42.198Z,5088.00
2019-05-28T10:24:42.185Z,5020.00
2019-05-28T10:25:42.174Z,5428.00
2019-05-28T10:26:42.161Z,6728.00
2019-05-28T10:27:59.526Z,9152.00
2019-05-28T10:28:43.192Z,12008.00
2019-05-28T10:29:42.126Z,12972.00
2019-05-28T10:30:42.126Z,12612.00
2019-05-28T10:31:42.102Z,13340.00
2019-05-28T10:32:42.097Z,13316.00
2019-05-28T10:33:42.100Z,11912.00
2019-05-28T10:34:42.099Z,11672.00
2019-05-28T10:35:42.059Z,13068.00
2019-05-28T10:36:42.060Z,12208.00
2019-05-28T10:37:49.600Z,11964.00
2019-05-28T10:38:42.036Z,12200.00
2019-05-28T10:39:42.028Z,12240.00
2019-05-28T10:40:42.007Z,12060.00
2019-05-28T10:41:42.039Z,11664.00
2019-05-28T10:42:41.985Z,11876.00
2019-05-28T10:43:42.006Z,11148.00
2019-05-28T10:44:45.153Z,9884.00
2019-05-28T10:45:42.088Z,11976.00
2019-05-28T10:46:41.949Z,10964.00
2019-05-28T10:47:41.953Z,12012.00
2019-05-28T10:48:41.914Z,11672.00
2019-05-28T10:49:41.944Z,11804.00
2019-05-28T10:50:41.901Z,11236.00
2019-05-28T10:51:41.900Z,11468.00
2019-05-28T10:52:41.900Z,11544.00
2019-05-28T10:53:41.906Z,11684.00
2019-05-28T10:54:41.866Z,11396.00
2019-05-28T10:55:41.845Z,11208.00
2019-05-28T10:56:41.855Z,11596.00
2019-05-28T10:57:41.837Z,12828.00
2019-05-28T10:58:41.848Z,13100.00
2019-05-28T10:59:41.810Z,13060.00
2019-05-28T11:00:41.796Z,12864.00
2019-05-28T11:01:41.793Z,12340.00
2019-05-28T11:02:41.792Z,12416.00
2019-05-28T11:03:41.796Z,12420.00
2019-05-28T11:04:41.762Z,12188.00
2019-05-28T11:05:41.776Z,12144.00
2019-05-28T11:06:51.375Z,12628.00
2019-05-28T11:07:42.713Z,12460.00
2019-05-28T11:08:41.715Z,12992.00
2019-05-28T11:09:50.633Z,14092.00
2019-05-28T11:10:41.684Z,12724.00
2019-05-28T11:11:41.671Z,12060.00
2019-05-28T11:12:41.659Z,11572.00
2019-05-28T11:13:52.495Z,11012.00
2019-05-28T11:14:42.633Z,10788.00
2019-05-28T11:15:42.143Z,10780.00
2019-05-28T11:16:41.636Z,10732.00
2019-05-28T11:17:41.607Z,10600.00
2019-05-28T11:18:41.609Z,10784.00
2019-05-28T11:19:41.619Z,11012.00
2019-05-28T11:20:41.597Z,11576.00
2019-05-28T11:21:41.624Z,12132.00
2019-05-28T11:22:41.577Z,12556.00
2019-05-28T11:23:41.568Z,12884.00
2019-05-28T11:24:41.528Z,12844.00
2019-05-28T11:25:41.574Z,12848.00
2019-05-28T11:26:41.520Z,13036.00
2019-05-28T11:27:41.505Z,13544.00
2019-05-28T11:28:41.535Z,13336.00
2019-05-28T11:29:41.481Z,13480.00
2019-05-28T11:30:41.474Z,13592.00
2019-05-28T11:31:41.470Z,13856.00
2019-05-28T11:32:41.468Z,13940.00
2019-05-28T11:33:41.440Z,13440.00
2019-05-28T11:34:41.434Z,12596.00
2019-05-28T11:35:41.443Z,11792.00
2019-05-28T11:36:41.401Z,11248.00
2019-05-28T11:37:41.385Z,10576.00
2019-05-28T11:38:41.402Z,10184.00
2019-05-28T11:39:41.367Z,10064.00
2019-05-28T11:40:41.355Z,9648.00
2019-05-28T11:41:49.132Z,8744.00
2019-05-28T11:42:41.336Z,8696.00
2019-05-28T11:43:41.325Z,10756.00
2019-05-28T11:44:41.323Z,11104.00
2019-05-28T11:45:41.295Z,11180.00
2019-05-28T11:46:41.292Z,10476.00
2019-05-28T11:47:41.284Z,9724.00
2019-05-28T11:48:41.358Z,8908.00
2019-05-28T11:49:41.264Z,8464.00
2019-05-28T11:50:41.255Z,8324.00
2019-05-28T11:51:41.264Z,8372.00
2019-05-28T11:52:41.222Z,6904.00
2019-05-28T11:53:41.214Z,7636.00
2019-05-28T11:54:41.246Z,7940.00
2019-05-28T11:55:41.198Z,7268.00
2019-05-28T11:56:41.229Z,7568.00
2019-05-28T11:57:41.168Z,7640.00
2019-05-28T11:58:41.172Z,7780.00
2019-05-28T11:59:41.194Z,7728.00
2019-05-28T12:00:41.138Z,7504.00
2019-05-28T12:01:41.343Z,7328.00
2019-05-28T12:02:41.224Z,7104.00
2019-05-28T12:03:41.109Z,6724.00
2019-05-28T12:04:41.101Z,6488.00
2019-05-28T12:05:41.128Z,6428.00
2019-05-28T12:06:41.074Z,6416.00
2019-05-28T12:07:41.058Z,8264.00
2019-05-28T12:08:41.052Z,7512.00
2019-05-28T12:09:41.056Z,9336.00
2019-05-28T12:10:41.098Z,12312.00
2019-05-28T12:11:41.043Z,11248.00
2019-05-28T12:12:41.005Z,10964.00
2019-05-28T12:13:48.666Z,11092.00
2019-05-28T12:14:40.980Z,12864.00
2019-05-28T12:15:40.997Z,12540.00
2019-05-28T12:16:40.979Z,11404.00
2019-05-28T12:17:44.372Z,10572.00
2019-05-28T12:18:40.947Z,10204.00
2019-05-28T12:19:40.991Z,10188.00
2019-05-28T12:20:40.941Z,9980.00
2019-05-28T12:21:40.958Z,9524.00
2019-05-28T12:22:40.904Z,9216.00
2019-05-28T12:23:40.905Z,9572.00
2019-05-28T12:24:40.928Z,9852.00
2019-05-28T12:25:40.891Z,9968.00
2019-05-28T12:26:41.038Z,10020.00
2019-05-28T12:27:40.852Z,9440.00
2019-05-28T12:28:40.830Z,7936.00
2019-05-28T12:29:51.438Z,7056.00
2019-05-28T12:30:41.809Z,6568.00
2019-05-28T12:31:40.801Z,5952.00
2019-05-28T12:32:40.806Z,5896.00
2019-05-28T12:33:40.783Z,6008.00
2019-05-28T12:34:40.776Z,6644.00
2019-05-28T12:35:42.871Z,6948.00
2019-05-28T12:36:40.743Z,6608.00
2019-05-28T12:37:48.312Z,6576.00
2019-05-28T12:38:41.819Z,6788.00
2019-05-28T12:39:40.751Z,6448.00
2019-05-28T12:40:47.892Z,6104.00
2019-05-28T12:41:41.711Z,5760.00
2019-05-28T12:42:40.677Z,5340.00
2019-05-28T12:43:40.688Z,5588.00
2019-05-28T12:44:42.466Z,6260.00
2019-05-28T12:45:47.638Z,6892.00
2019-05-28T12:46:40.642Z,7112.00
2019-05-28T12:47:40.630Z,7228.00
2019-05-28T12:48:40.633Z,7372.00
2019-05-28T12:49:40.604Z,7656.00
2019-05-28T12:50:40.601Z,8500.00
2019-05-28T12:51:40.590Z,9716.00
2019-05-28T12:52:40.598Z,10456.00
2019-05-28T12:53:50.239Z,11280.00
2019-05-28T12:54:41.553Z,11528.00
2019-05-28T12:55:40.545Z,11140.00
2019-05-28T12:56:40.549Z,10704.00
2019-05-28T12:57:40.517Z,10620.00
2019-05-28T12:58:42.831Z,11200.00
2019-05-28T12:59:40.496Z,10772.00
2019-05-28T13:00:40.488Z,9868.00
2019-05-28T13:01:40.475Z,9824.00
2019-05-28T13:02:40.464Z,10012.00
2019-05-28T13:03:40.530Z,10616.00
2019-05-28T13:04:40.450Z,10728.00
2019-05-28T13:05:40.431Z,12960.00
2019-05-28T13:06:40.417Z,12884.00
2019-05-28T13:07:40.414Z,12040.00
2019-05-28T13:08:40.402Z,10552.00
2019-05-28T13:09:40.399Z,9212.00
2019-05-28T13:10:40.389Z,8128.00
2019-05-28T13:11:40.365Z,8004.00
2019-05-28T13:12:40.353Z,8112.00
2019-05-28T13:13:40.344Z,8344.00
2019-05-28T13:14:40.365Z,8524.00
2019-05-28T13:15:42.471Z,8892.00
2019-05-28T13:16:40.311Z,10312.00
2019-05-28T13:17:47.296Z,9808.00
2019-05-28T13:18:40.286Z,10132.00
2019-05-28T13:19:40.283Z,10592.00
2019-05-28T13:20:40.273Z,10508.00
2019-05-28T13:21:40.262Z,10704.00
2019-05-28T13:22:40.259Z,11120.00
2019-05-28T13:23:40.244Z,12252.00
2019-05-28T13:24:40.234Z,12136.00
2019-05-28T13:25:40.254Z,12560.00
2019-05-28T13:26:40.235Z,11732.00
2019-05-28T13:27:40.188Z,11216.00
2019-05-28T13:28:40.190Z,11160.00
2019-05-28T13:29:40.204Z,11848.00
2019-05-28T13:30:40.200Z,11360.00
2019-05-28T13:31:40.205Z,11068.00
2019-05-28T13:32:40.138Z,9132.00
2019-05-28T13:33:40.128Z,8788.00
2019-05-28T13:34:40.138Z,8628.00
2019-05-28T13:35:40.144Z,8648.00
2019-05-28T13:36:40.092Z,8948.00
2019-05-28T13:37:40.108Z,9296.00
2019-05-28T13:38:42.629Z,11304.00
2019-05-28T13:39:40.063Z,11276.00
2019-05-28T13:40:40.048Z,11220.00